sensor_id;sensor_type;location;lat;lon;timestamp;P1;durP1;ratioP1;P2;durP2;ratioP2
43297;SDS011;28892;55.640;37.532;2022-12-07T00:01:33;7.37;;;3.87;;
43297;SDS011;28892;55.640;37.532;2022-12-07T00:04:06;6.83;;;4.47;;
43297;SDS011;28892;55.640;37.532;2022-12-07T00:06:38;7.90;;;4.60;;
43297;SDS011;28892;55.640;37.532;2022-12-07T00:09:06;8.07;;;4.73;;
43297;SDS011;28892;55.640;37.532;2022-12-07T00:11:34;4.70;;;3.33;;
43297;SDS011;28892;55.640;37.532;2022-12-07T00:14:01;4.63;;;3.23;;
43297;SDS011;28892;55.640;37.532;2022-12-07T00:16:30;6.13;;;3.97;;
43297;SDS011;28892;55.640;37.532;2022-12-07T00:18:57;6.60;;;4.60;;
43297;SDS011;28892;55.640;37.532;2022-12-07T00:21:24;8.40;;;3.70;;
43297;SDS011;28892;55.640;37.532;2022-12-07T00:23:52;5.40;;;4.43;;
43297;SDS011;28892;55.640;37.532;2022-12-07T00:28:51;6.17;;;4.07;;
43297;SDS011;28892;55.640;37.532;2022-12-07T00:31:20;5.90;;;4.20;;
43297;SDS011;28892;55.640;37.532;2022-12-07T00:33:47;6.17;;;4.00;;
43297;SDS011;28892;55.640;37.532;2022-12-07T00:36:15;4.33;;;2.80;;
43297;SDS011;28892;55.640;37.532;2022-12-07T00:38:44;7.20;;;4.77;;
43297;SDS011;28892;55.640;37.532;2022-12-07T00:41:11;5.40;;;2.73;;
43297;SDS011;28892;55.640;37.532;2022-12-07T00:43:39;8.47;;;4.13;;
43297;SDS011;28892;55.640;37.532;2022-12-07T00:46:06;5.07;;;3.30;;
43297;SDS011;28892;55.640;37.532;2022-12-07T00:48:32;7.37;;;4.20;;
43297;SDS011;28892;55.640;37.532;2022-12-07T00:50:58;6.83;;;3.83;;
43297;SDS011;28892;55.640;37.532;2022-12-07T00:53:24;6.23;;;3.70;;
43297;SDS011;28892;55.640;37.532;2022-12-07T00:55:50;6.40;;;4.80;;
43297;SDS011;28892;55.640;37.532;2022-12-07T00:58:18;7.33;;;4.03;;
43297;SDS011;28892;55.640;37.532;2022-12-07T01:00:44;6.73;;;3.80;;
43297;SDS011;28892;55.640;37.532;2022-12-07T01:03:12;6.30;;;4.10;;
43297;SDS011;28892;55.640;37.532;2022-12-07T01:05:38;7.63;;;3.97;;
43297;SDS011;28892;55.640;37.532;2022-12-07T01:08:05;5.70;;;3.87;;
43297;SDS011;28892;55.640;37.532;2022-12-07T01:10:32;5.80;;;3.43;;
43297;SDS011;28892;55.640;37.532;2022-12-07T01:12:58;6.97;;;4.50;;
43297;SDS011;28892;55.640;37.532;2022-12-07T01:15:24;5.43;;;3.90;;
43297;SDS011;28892;55.640;37.532;2022-12-07T01:17:51;14.67;;;4.90;;
43297;SDS011;28892;55.640;37.532;2022-12-07T01:20:17;8.40;;;5.30;;
43297;SDS011;28892;55.640;37.532;2022-12-07T01:22:43;4.37;;;3.20;;
43297;SDS011;28892;55.640;37.532;2022-12-07T01:25:09;6.63;;;4.10;;
43297;SDS011;28892;55.640;37.532;2022-12-07T01:27:37;8.73;;;4.57;;
43297;SDS011;28892;55.640;37.532;2022-12-07T01:30:06;6.83;;;4.47;;
43297;SDS011;28892;55.640;37.532;2022-12-07T01:32:32;6.47;;;5.03;;
43297;SDS011;28892;55.640;37.532;2022-12-07T01:34:58;5.83;;;4.73;;
43297;SDS011;28892;55.640;37.532;2022-12-07T01:37:24;5.93;;;3.83;;
43297;SDS011;28892;55.640;37.532;2022-12-07T01:39:53;5.13;;;3.87;;
43297;SDS011;28892;55.640;37.532;2022-12-07T01:42:19;6.40;;;2.77;;
43297;SDS011;28892;55.640;37.532;2022-12-07T01:47:57;8.35;;;4.82;;
43297;SDS011;28892;55.640;37.532;2022-12-07T01:50:27;6.63;;;4.40;;
43297;SDS011;28892;55.640;37.532;2022-12-07T01:52:57;6.90;;;3.97;;
43297;SDS011;28892;55.640;37.532;2022-12-07T01:55:26;9.20;;;4.70;;
43297;SDS011;28892;55.640;37.532;2022-12-07T01:57:53;6.93;;;4.90;;
43297;SDS011;28892;55.640;37.532;2022-12-07T02:00:20;6.13;;;3.93;;
43297;SDS011;28892;55.640;37.532;2022-12-07T02:05:11;6.47;;;4.80;;
43297;SDS011;28892;55.640;37.532;2022-12-07T02:07:38;7.97;;;4.17;;
43297;SDS011;28892;55.640;37.532;2022-12-07T02:10:14;5.40;;;3.30;;
43297;SDS011;28892;55.640;37.532;2022-12-07T02:12:46;6.27;;;4.03;;
43297;SDS011;28892;55.640;37.532;2022-12-07T02:15:42;5.53;;;3.10;;
43297;SDS011;28892;55.640;37.532;2022-12-07T02:21:00;8.63;;;5.23;;
43297;SDS011;28892;55.640;37.532;2022-12-07T02:23:40;5.50;;;4.00;;
43297;SDS011;28892;55.640;37.532;2022-12-07T02:29:33;7.43;;;4.43;;
43297;SDS011;28892;55.640;37.532;2022-12-07T02:37:37;9.77;;;4.60;;
43297;SDS011;28892;55.640;37.532;2022-12-07T02:42:46;4.87;;;3.23;;
43297;SDS011;28892;55.640;37.532;2022-12-07T02:45:17;6.27;;;3.73;;
43297;SDS011;28892;55.640;37.532;2022-12-07T02:47:45;5.40;;;4.00;;
43297;SDS011;28892;55.640;37.532;2022-12-07T02:50:18;7.57;;;3.53;;
43297;SDS011;28892;55.640;37.532;2022-12-07T02:52:45;7.60;;;3.83;;
43297;SDS011;28892;55.640;37.532;2022-12-07T02:55:11;5.13;;;3.87;;
43297;SDS011;28892;55.640;37.532;2022-12-07T02:57:54;9.80;;;5.00;;
43297;SDS011;28892;55.640;37.532;2022-12-07T03:00:34;6.33;;;4.50;;
43297;SDS011;28892;55.640;37.532;2022-12-07T03:03:15;7.90;;;3.97;;
43297;SDS011;28892;55.640;37.532;2022-12-07T03:11:29;6.10;;;4.23;;
43297;SDS011;28892;55.640;37.532;2022-12-07T03:14:26;6.70;;;3.50;;
43297;SDS011;28892;55.640;37.532;2022-12-07T03:17:02;5.63;;;4.27;;
43297;SDS011;28892;55.640;37.532;2022-12-07T03:19:35;6.37;;;4.07;;
43297;SDS011;28892;55.640;37.532;2022-12-07T03:22:04;6.23;;;3.67;;
43297;SDS011;28892;55.640;37.532;2022-12-07T03:24:35;4.70;;;3.40;;
43297;SDS011;28892;55.640;37.532;2022-12-07T03:29:43;6.83;;;4.13;;
43297;SDS011;28892;55.640;37.532;2022-12-07T03:33:08;6.50;;;3.60;;
43297;SDS011;28892;55.640;37.532;2022-12-07T03:35:36;4.57;;;3.10;;
43297;SDS011;28892;55.640;37.532;2022-12-07T03:38:29;6.97;;;4.50;;
43297;SDS011;28892;55.640;37.532;2022-12-07T03:43:37;5.50;;;4.40;;
43297;SDS011;28892;55.640;37.532;2022-12-07T03:46:17;8.73;;;4.10;;
43297;SDS011;28892;55.640;37.532;2022-12-07T03:48:59;4.30;;;2.93;;
43297;SDS011;28892;55.640;37.532;2022-12-07T03:54:31;7.77;;;3.30;;
43297;SDS011;28892;55.640;37.532;2022-12-07T03:57:01;5.53;;;3.40;;
43297;SDS011;28892;55.640;37.532;2022-12-07T03:59:29;6.13;;;4.80;;
43297;SDS011;28892;55.640;37.532;2022-12-07T04:01:56;5.97;;;3.40;;
43297;SDS011;28892;55.640;37.532;2022-12-07T04:04:26;5.93;;;4.47;;
43297;SDS011;28892;55.640;37.532;2022-12-07T04:06:53;6.40;;;4.60;;
43297;SDS011;28892;55.640;37.532;2022-12-07T04:09:19;7.80;;;4.20;;
43297;SDS011;28892;55.640;37.532;2022-12-07T04:11:45;8.57;;;4.67;;
43297;SDS011;28892;55.640;37.532;2022-12-07T04:14:11;6.73;;;3.43;;
43297;SDS011;28892;55.640;37.532;2022-12-07T04:16:50;6.03;;;3.93;;
43297;SDS011;28892;55.640;37.532;2022-12-07T04:19:18;7.67;;;4.30;;
43297;SDS011;28892;55.640;37.532;2022-12-07T04:21:45;7.93;;;3.87;;
43297;SDS011;28892;55.640;37.532;2022-12-07T04:24:12;6.13;;;4.27;;
43297;SDS011;28892;55.640;37.532;2022-12-07T04:26:42;7.23;;;4.70;;
43297;SDS011;28892;55.640;37.532;2022-12-07T04:29:08;8.37;;;4.53;;
43297;SDS011;28892;55.640;37.532;2022-12-07T04:31:35;7.07;;;4.97;;
43297;SDS011;28892;55.640;37.532;2022-12-07T04:34:05;7.03;;;3.50;;
43297;SDS011;28892;55.640;37.532;2022-12-07T04:36:32;7.23;;;4.07;;
43297;SDS011;28892;55.640;37.532;2022-12-07T04:38:58;6.83;;;4.43;;
43297;SDS011;28892;55.640;37.532;2022-12-07T04:41:24;6.17;;;4.27;;
43297;SDS011;28892;55.640;37.532;2022-12-07T04:43:54;5.37;;;4.00;;
43297;SDS011;28892;55.640;37.532;2022-12-07T04:46:22;5.33;;;4.00;;
43297;SDS011;28892;55.640;37.532;2022-12-07T04:48:48;4.30;;;3.40;;
43297;SDS011;28892;55.640;37.532;2022-12-07T04:51:19;7.33;;;4.57;;
43297;SDS011;28892;55.640;37.532;2022-12-07T04:53:46;9.40;;;4.77;;
43297;SDS011;28892;55.640;37.532;2022-12-07T04:56:13;6.67;;;4.07;;
43297;SDS011;28892;55.640;37.532;2022-12-07T04:58:40;6.13;;;3.60;;
43297;SDS011;28892;55.640;37.532;2022-12-07T05:01:06;5.17;;;4.03;;
43297;SDS011;28892;55.640;37.532;2022-12-07T05:03:32;6.57;;;3.37;;
43297;SDS011;28892;55.640;37.532;2022-12-07T05:05:57;8.60;;;4.20;;
43297;SDS011;28892;55.640;37.532;2022-12-07T05:08:23;5.03;;;3.60;;
43297;SDS011;28892;55.640;37.532;2022-12-07T05:10:49;6.40;;;4.13;;
43297;SDS011;28892;55.640;37.532;2022-12-07T05:13:15;6.47;;;3.83;;
43297;SDS011;28892;55.640;37.532;2022-12-07T05:15:41;6.90;;;4.33;;
43297;SDS011;28892;55.640;37.532;2022-12-07T05:18:09;7.10;;;3.93;;
43297;SDS011;28892;55.640;37.532;2022-12-07T05:20:38;5.77;;;3.90;;
43297;SDS011;28892;55.640;37.532;2022-12-07T05:23:04;5.53;;;3.33;;
43297;SDS011;28892;55.640;37.532;2022-12-07T05:25:30;5.03;;;3.83;;
43297;SDS011;28892;55.640;37.532;2022-12-07T05:28:02;8.83;;;3.80;;
43297;SDS011;28892;55.640;37.532;2022-12-07T05:30:28;5.88;;;4.40;;
43297;SDS011;28892;55.640;37.532;2022-12-07T05:32:58;7.03;;;4.03;;
43297;SDS011;28892;55.640;37.532;2022-12-07T05:35:23;6.57;;;3.87;;
43297;SDS011;28892;55.640;37.532;2022-12-07T05:37:49;6.27;;;4.17;;
43297;SDS011;28892;55.640;37.532;2022-12-07T05:40:15;7.53;;;4.80;;
43297;SDS011;28892;55.640;37.532;2022-12-07T05:42:41;7.07;;;4.13;;
43297;SDS011;28892;55.640;37.532;2022-12-07T05:45:08;7.60;;;4.00;;
43297;SDS011;28892;55.640;37.532;2022-12-07T05:47:35;8.73;;;5.00;;
43297;SDS011;28892;55.640;37.532;2022-12-07T05:50:16;17.30;;;4.23;;
43297;SDS011;28892;55.640;37.532;2022-12-07T05:53:01;7.43;;;4.00;;
43297;SDS011;28892;55.640;37.532;2022-12-07T05:55:48;7.57;;;4.60;;
43297;SDS011;28892;55.640;37.532;2022-12-07T05:58:14;7.47;;;3.50;;
43297;SDS011;28892;55.640;37.532;2022-12-07T06:00:59;8.60;;;4.17;;
43297;SDS011;28892;55.640;37.532;2022-12-07T06:03:25;9.40;;;4.10;;
43297;SDS011;28892;55.640;37.532;2022-12-07T06:05:51;7.27;;;4.17;;
43297;SDS011;28892;55.640;37.532;2022-12-07T06:08:17;4.97;;;3.87;;
43297;SDS011;28892;55.640;37.532;2022-12-07T06:10:43;7.53;;;4.57;;
43297;SDS011;28892;55.640;37.532;2022-12-07T06:13:09;8.13;;;4.50;;
43297;SDS011;28892;55.640;37.532;2022-12-07T06:15:35;6.67;;;4.33;;
43297;SDS011;28892;55.640;37.532;2022-12-07T06:18:01;9.30;;;4.03;;
43297;SDS011;28892;55.640;37.532;2022-12-07T06:20:27;6.17;;;4.83;;
43297;SDS011;28892;55.640;37.532;2022-12-07T06:22:53;7.23;;;4.70;;
43297;SDS011;28892;55.640;37.532;2022-12-07T06:25:19;8.73;;;5.17;;
43297;SDS011;28892;55.640;37.532;2022-12-07T06:27:44;10.00;;;5.00;;
43297;SDS011;28892;55.640;37.532;2022-12-07T06:30:10;8.23;;;5.40;;
43297;SDS011;28892;55.640;37.532;2022-12-07T06:32:36;8.70;;;5.63;;
43297;SDS011;28892;55.640;37.532;2022-12-07T06:35:03;9.43;;;5.37;;
43297;SDS011;28892;55.640;37.532;2022-12-07T06:37:29;7.70;;;5.07;;
43297;SDS011;28892;55.640;37.532;2022-12-07T06:39:55;10.63;;;5.47;;
43297;SDS011;28892;55.640;37.532;2022-12-07T06:42:41;6.37;;;4.33;;
43297;SDS011;28892;55.640;37.532;2022-12-07T06:45:13;9.47;;;5.13;;
43297;SDS011;28892;55.640;37.532;2022-12-07T06:47:38;8.53;;;5.90;;
43297;SDS011;28892;55.640;37.532;2022-12-07T06:50:04;9.87;;;5.97;;
43297;SDS011;28892;55.640;37.532;2022-12-07T06:52:33;9.83;;;5.50;;
43297;SDS011;28892;55.640;37.532;2022-12-07T06:54:59;8.10;;;4.60;;
43297;SDS011;28892;55.640;37.532;2022-12-07T06:57:29;9.33;;;4.27;;
43297;SDS011;28892;55.640;37.532;2022-12-07T06:59:55;8.50;;;5.87;;
43297;SDS011;28892;55.640;37.532;2022-12-07T07:02:21;8.83;;;5.30;;
43297;SDS011;28892;55.640;37.532;2022-12-07T07:04:46;6.17;;;4.47;;
43297;SDS011;28892;55.640;37.532;2022-12-07T07:07:15;11.33;;;5.90;;
43297;SDS011;28892;55.640;37.532;2022-12-07T07:09:41;9.20;;;5.33;;
43297;SDS011;28892;55.640;37.532;2022-12-07T07:12:07;9.73;;;5.60;;
43297;SDS011;28892;55.640;37.532;2022-12-07T07:14:33;9.00;;;5.63;;
43297;SDS011;28892;55.640;37.532;2022-12-07T07:16:59;8.33;;;4.87;;
43297;SDS011;28892;55.640;37.532;2022-12-07T07:19:25;15.33;;;5.87;;
43297;SDS011;28892;55.640;37.532;2022-12-07T07:21:51;10.03;;;5.90;;
43297;SDS011;28892;55.640;37.532;2022-12-07T07:24:17;7.40;;;4.70;;
43297;SDS011;28892;55.640;37.532;2022-12-07T07:26:46;8.20;;;5.30;;
43297;SDS011;28892;55.640;37.532;2022-12-07T07:29:12;14.33;;;6.83;;
43297;SDS011;28892;55.640;37.532;2022-12-07T07:31:37;7.33;;;4.47;;
43297;SDS011;28892;55.640;37.532;2022-12-07T07:34:03;10.13;;;6.53;;
43297;SDS011;28892;55.640;37.532;2022-12-07T07:36:29;10.23;;;5.60;;
43297;SDS011;28892;55.640;37.532;2022-12-07T07:38:55;11.67;;;6.90;;
43297;SDS011;28892;55.640;37.532;2022-12-07T07:41:21;11.17;;;6.90;;
43297;SDS011;28892;55.640;37.532;2022-12-07T07:43:47;11.83;;;6.90;;
43297;SDS011;28892;55.640;37.532;2022-12-07T07:46:12;10.77;;;6.50;;
43297;SDS011;28892;55.640;37.532;2022-12-07T07:48:39;10.40;;;5.87;;
43297;SDS011;28892;55.640;37.532;2022-12-07T07:51:05;9.70;;;6.57;;
43297;SDS011;28892;55.640;37.532;2022-12-07T07:53:32;7.73;;;5.03;;
43297;SDS011;28892;55.640;37.532;2022-12-07T07:55:58;6.00;;;3.30;;
43297;SDS011;28892;55.640;37.532;2022-12-07T07:59:02;10.57;;;6.03;;
43297;SDS011;28892;55.640;37.532;2022-12-07T08:01:28;9.47;;;4.37;;
43297;SDS011;28892;55.640;37.532;2022-12-07T08:03:54;9.60;;;7.00;;
43297;SDS011;28892;55.640;37.532;2022-12-07T08:45:45;9.80;;;5.27;;
43297;SDS011;28892;55.640;37.532;2022-12-07T08:48:13;11.50;;;6.23;;
43297;SDS011;28892;55.640;37.532;2022-12-07T08:50:42;7.93;;;5.03;;
43297;SDS011;28892;55.640;37.532;2022-12-07T08:53:08;8.10;;;5.70;;
43297;SDS011;28892;55.640;37.532;2022-12-07T08:55:51;7.65;;;5.32;;
43297;SDS011;28892;55.640;37.532;2022-12-07T08:58:36;10.23;;;5.93;;
43297;SDS011;28892;55.640;37.532;2022-12-07T09:01:05;9.23;;;5.43;;
43297;SDS011;28892;55.640;37.532;2022-12-07T09:03:31;11.87;;;6.83;;
43297;SDS011;28892;55.640;37.532;2022-12-07T09:05:57;13.10;;;6.53;;
43297;SDS011;28892;55.640;37.532;2022-12-07T09:08:25;9.97;;;6.40;;
43297;SDS011;28892;55.640;37.532;2022-12-07T09:13:22;10.27;;;5.70;;
43297;SDS011;28892;55.640;37.532;2022-12-07T09:15:57;10.53;;;5.73;;
43297;SDS011;28892;55.640;37.532;2022-12-07T09:18:23;9.30;;;5.80;;
43297;SDS011;28892;55.640;37.532;2022-12-07T09:20:50;7.57;;;6.00;;
43297;SDS011;28892;55.640;37.532;2022-12-07T09:23:16;8.83;;;6.17;;
43297;SDS011;28892;55.640;37.532;2022-12-07T09:25:42;8.80;;;4.83;;
43297;SDS011;28892;55.640;37.532;2022-12-07T09:28:08;9.23;;;5.33;;
43297;SDS011;28892;55.640;37.532;2022-12-07T09:30:34;7.53;;;6.00;;
43297;SDS011;28892;55.640;37.532;2022-12-07T09:32:59;9.93;;;5.90;;
43297;SDS011;28892;55.640;37.532;2022-12-07T09:35:26;9.43;;;5.87;;
43297;SDS011;28892;55.640;37.532;2022-12-07T09:37:52;8.90;;;5.10;;
43297;SDS011;28892;55.640;37.532;2022-12-07T09:40:19;7.50;;;5.40;;
43297;SDS011;28892;55.640;37.532;2022-12-07T09:42:54;9.63;;;5.23;;
43297;SDS011;28892;55.640;37.532;2022-12-07T09:45:22;7.83;;;5.13;;
43297;SDS011;28892;55.640;37.532;2022-12-07T09:48:39;9.23;;;5.40;;
43297;SDS011;28892;55.640;37.532;2022-12-07T09:51:15;8.63;;;5.68;;
43297;SDS011;28892;55.640;37.532;2022-12-07T09:53:51;11.63;;;5.63;;
43297;SDS011;28892;55.640;37.532;2022-12-07T09:56:28;6.77;;;4.53;;
43297;SDS011;28892;55.640;37.532;2022-12-07T09:58:58;7.50;;;5.13;;
43297;SDS011;28892;55.640;37.532;2022-12-07T10:01:30;7.60;;;5.63;;
43297;SDS011;28892;55.640;37.532;2022-12-07T10:04:17;8.90;;;4.70;;
43297;SDS011;28892;55.640;37.532;2022-12-07T10:06:46;10.52;;;5.03;;
43297;SDS011;28892;55.640;37.532;2022-12-07T10:09:13;8.35;;;5.55;;
43297;SDS011;28892;55.640;37.532;2022-12-07T10:14:36;8.40;;;5.63;;
43297;SDS011;28892;55.640;37.532;2022-12-07T10:19:52;10.10;;;6.03;;
43297;SDS011;28892;55.640;37.532;2022-12-07T10:22:38;9.18;;;5.25;;
43297;SDS011;28892;55.640;37.532;2022-12-07T10:25:19;9.27;;;5.65;;
43297;SDS011;28892;55.640;37.532;2022-12-07T10:30:46;10.48;;;5.47;;
43297;SDS011;28892;55.640;37.532;2022-12-07T10:35:56;8.20;;;5.07;;
43297;SDS011;28892;55.640;37.532;2022-12-07T10:38:25;7.57;;;5.80;;
43297;SDS011;28892;55.640;37.532;2022-12-07T10:41:05;7.32;;;5.43;;
43297;SDS011;28892;55.640;37.532;2022-12-07T10:43:32;12.83;;;5.37;;
43297;SDS011;28892;55.640;37.532;2022-12-07T10:56:50;7.70;;;6.05;;
43297;SDS011;28892;55.640;37.532;2022-12-07T11:02:07;9.03;;;6.07;;
43297;SDS011;28892;55.640;37.532;2022-12-07T11:10:39;9.47;;;6.07;;
43297;SDS011;28892;55.640;37.532;2022-12-07T11:16:50;13.77;;;6.20;;
43297;SDS011;28892;55.640;37.532;2022-12-07T11:19:43;6.97;;;4.40;;
43297;SDS011;28892;55.640;37.532;2022-12-07T11:22:38;8.73;;;5.90;;
43297;SDS011;28892;55.640;37.532;2022-12-07T11:25:32;11.77;;;5.60;;
43297;SDS011;28892;55.640;37.532;2022-12-07T11:37:31;8.00;;;5.20;;
43297;SDS011;28892;55.640;37.532;2022-12-07T11:42:46;10.27;;;6.50;;
43297;SDS011;28892;55.640;37.532;2022-12-07T11:45:25;11.37;;;6.10;;
43297;SDS011;28892;55.640;37.532;2022-12-07T11:48:00;11.77;;;6.23;;
43297;SDS011;28892;55.640;37.532;2022-12-07T11:50:36;7.17;;;4.40;;
43297;SDS011;28892;55.640;37.532;2022-12-07T11:56:36;15.43;;;6.77;;
43297;SDS011;28892;55.640;37.532;2022-12-07T12:02:35;12.53;;;6.03;;
43297;SDS011;28892;55.640;37.532;2022-12-07T12:05:35;27.47;;;12.03;;
43297;SDS011;28892;55.640;37.532;2022-12-07T12:08:14;17.87;;;8.93;;
43297;SDS011;28892;55.640;37.532;2022-12-07T12:21:47;11.33;;;6.80;;
43297;SDS011;28892;55.640;37.532;2022-12-07T12:24:22;12.73;;;6.10;;
43297;SDS011;28892;55.640;37.532;2022-12-07T12:26:53;15.67;;;6.13;;
43297;SDS011;28892;55.640;37.532;2022-12-07T12:29:34;11.83;;;7.37;;
43297;SDS011;28892;55.640;37.532;2022-12-07T12:37:49;16.73;;;8.33;;
43297;SDS011;28892;55.640;37.532;2022-12-07T12:42:58;17.10;;;7.77;;
43297;SDS011;28892;55.640;37.532;2022-12-07T12:45:27;13.60;;;7.60;;
43297;SDS011;28892;55.640;37.532;2022-12-07T12:48:04;16.70;;;9.90;;
43297;SDS011;28892;55.640;37.532;2022-12-07T12:51:35;9.77;;;5.60;;
43297;SDS011;28892;55.640;37.532;2022-12-07T13:08:24;12.00;;;6.73;;
43297;SDS011;28892;55.640;37.532;2022-12-07T13:10:48;12.80;;;7.30;;
43297;SDS011;28892;55.640;37.532;2022-12-07T13:18:45;14.57;;;7.40;;
43297;SDS011;28892;55.640;37.532;2022-12-07T13:26:12;15.93;;;8.23;;
43297;SDS011;28892;55.640;37.532;2022-12-07T13:29:30;16.60;;;8.60;;
43297;SDS011;28892;55.640;37.532;2022-12-07T13:31:47;13.73;;;6.93;;
43297;SDS011;28892;55.640;37.532;2022-12-07T13:36:57;10.63;;;5.53;;
43297;SDS011;28892;55.640;37.532;2022-12-07T13:39:25;9.30;;;5.17;;
43297;SDS011;28892;55.640;37.532;2022-12-07T13:41:55;14.03;;;8.90;;
43297;SDS011;28892;55.640;37.532;2022-12-07T13:44:33;13.50;;;8.00;;
43297;SDS011;28892;55.640;37.532;2022-12-07T13:50:02;12.47;;;8.13;;
43297;SDS011;28892;55.640;37.532;2022-12-07T13:52:49;15.30;;;8.23;;
43297;SDS011;28892;55.640;37.532;2022-12-07T13:55:18;7.17;;;5.30;;
43297;SDS011;28892;55.640;37.532;2022-12-07T13:57:44;11.83;;;7.03;;
43297;SDS011;28892;55.640;37.532;2022-12-07T14:00:15;9.30;;;6.00;;
43297;SDS011;28892;55.640;37.532;2022-12-07T14:02:56;9.80;;;5.60;;
43297;SDS011;28892;55.640;37.532;2022-12-07T14:05:23;10.35;;;6.45;;
43297;SDS011;28892;55.640;37.532;2022-12-07T14:12:50;10.07;;;6.73;;
43297;SDS011;28892;55.640;37.532;2022-12-07T14:15:20;11.90;;;6.73;;
43297;SDS011;28892;55.640;37.532;2022-12-07T14:17:52;16.13;;;7.20;;
43297;SDS011;28892;55.640;37.532;2022-12-07T14:22:56;11.00;;;6.23;;
43297;SDS011;28892;55.640;37.532;2022-12-07T14:25:24;10.23;;;5.37;;
43297;SDS011;28892;55.640;37.532;2022-12-07T14:27:59;9.97;;;5.80;;
43297;SDS011;28892;55.640;37.532;2022-12-07T14:33:28;12.83;;;8.80;;
43297;SDS011;28892;55.640;37.532;2022-12-07T14:38:50;11.77;;;7.87;;
43297;SDS011;28892;55.640;37.532;2022-12-07T14:41:19;13.13;;;6.47;;
43297;SDS011;28892;55.640;37.532;2022-12-07T14:44:10;13.30;;;8.53;;
43297;SDS011;28892;55.640;37.532;2022-12-07T14:46:37;15.57;;;7.10;;
43297;SDS011;28892;55.640;37.532;2022-12-07T14:49:03;12.53;;;7.63;;
43297;SDS011;28892;55.640;37.532;2022-12-07T14:51:29;12.67;;;8.47;;
43297;SDS011;28892;55.640;37.532;2022-12-07T14:53:54;10.80;;;7.70;;
43297;SDS011;28892;55.640;37.532;2022-12-07T14:56:20;9.57;;;6.40;;
43297;SDS011;28892;55.640;37.532;2022-12-07T14:58:46;12.00;;;5.73;;
43297;SDS011;28892;55.640;37.532;2022-12-07T15:01:13;12.53;;;7.43;;
43297;SDS011;28892;55.640;37.532;2022-12-07T15:03:39;10.17;;;6.13;;
43297;SDS011;28892;55.640;37.532;2022-12-07T15:06:05;10.80;;;5.97;;
43297;SDS011;28892;55.640;37.532;2022-12-07T15:08:34;13.63;;;6.70;;
43297;SDS011;28892;55.640;37.532;2022-12-07T15:11:00;10.87;;;6.27;;
43297;SDS011;28892;55.640;37.532;2022-12-07T15:13:26;11.37;;;6.47;;
43297;SDS011;28892;55.640;37.532;2022-12-07T15:16:10;14.60;;;7.10;;
43297;SDS011;28892;55.640;37.532;2022-12-07T15:18:39;11.87;;;6.90;;
43297;SDS011;28892;55.640;37.532;2022-12-07T15:21:04;9.80;;;5.07;;
43297;SDS011;28892;55.640;37.532;2022-12-07T15:23:30;9.17;;;5.73;;
43297;SDS011;28892;55.640;37.532;2022-12-07T15:25:56;11.83;;;7.00;;
43297;SDS011;28892;55.640;37.532;2022-12-07T15:28:33;10.30;;;6.87;;
43297;SDS011;28892;55.640;37.532;2022-12-07T15:30:59;12.93;;;6.57;;
43297;SDS011;28892;55.640;37.532;2022-12-07T15:33:25;13.33;;;7.60;;
43297;SDS011;28892;55.640;37.532;2022-12-07T15:35:51;14.20;;;7.27;;
43297;SDS011;28892;55.640;37.532;2022-12-07T15:38:17;11.50;;;6.43;;
43297;SDS011;28892;55.640;37.532;2022-12-07T15:41:21;15.13;;;7.83;;
43297;SDS011;28892;55.640;37.532;2022-12-07T15:43:47;16.03;;;9.63;;
43297;SDS011;28892;55.640;37.532;2022-12-07T15:46:36;10.70;;;6.17;;
43297;SDS011;28892;55.640;37.532;2022-12-07T15:49:08;9.80;;;6.00;;
43297;SDS011;28892;55.640;37.532;2022-12-07T15:51:40;15.67;;;8.47;;
43297;SDS011;28892;55.640;37.532;2022-12-07T15:54:13;11.33;;;5.70;;
43297;SDS011;28892;55.640;37.532;2022-12-07T15:56:46;13.27;;;8.77;;
43297;SDS011;28892;55.640;37.532;2022-12-07T15:59:12;11.33;;;6.47;;
43297;SDS011;28892;55.640;37.532;2022-12-07T16:01:38;11.53;;;6.80;;
43297;SDS011;28892;55.640;37.532;2022-12-07T16:04:48;12.70;;;6.57;;
43297;SDS011;28892;55.640;37.532;2022-12-07T16:07:15;13.20;;;6.47;;
43297;SDS011;28892;55.640;37.532;2022-12-07T16:09:43;10.77;;;5.87;;
43297;SDS011;28892;55.640;37.532;2022-12-07T16:12:10;13.33;;;7.67;;
43297;SDS011;28892;55.640;37.532;2022-12-07T16:14:36;11.80;;;6.70;;
43297;SDS011;28892;55.640;37.532;2022-12-07T16:17:03;15.00;;;9.27;;
43297;SDS011;28892;55.640;37.532;2022-12-07T16:19:30;10.10;;;6.00;;
43297;SDS011;28892;55.640;37.532;2022-12-07T16:21:56;10.87;;;6.30;;
43297;SDS011;28892;55.640;37.532;2022-12-07T16:24:22;14.10;;;8.77;;
43297;SDS011;28892;55.640;37.532;2022-12-07T16:26:48;8.20;;;4.87;;
43297;SDS011;28892;55.640;37.532;2022-12-07T16:29:14;12.80;;;5.93;;
43297;SDS011;28892;55.640;37.532;2022-12-07T16:31:40;13.87;;;8.07;;
43297;SDS011;28892;55.640;37.532;2022-12-07T16:34:06;12.03;;;7.20;;
43297;SDS011;28892;55.640;37.532;2022-12-07T16:36:32;10.90;;;6.47;;
43297;SDS011;28892;55.640;37.532;2022-12-07T16:38:59;12.60;;;6.93;;
43297;SDS011;28892;55.640;37.532;2022-12-07T16:41:25;15.63;;;9.70;;
43297;SDS011;28892;55.640;37.532;2022-12-07T16:43:51;11.43;;;7.53;;
43297;SDS011;28892;55.640;37.532;2022-12-07T16:46:17;13.47;;;9.33;;
43297;SDS011;28892;55.640;37.532;2022-12-07T16:48:43;12.43;;;6.27;;
43297;SDS011;28892;55.640;37.532;2022-12-07T16:51:10;9.83;;;6.93;;
43297;SDS011;28892;55.640;37.532;2022-12-07T16:53:38;12.30;;;7.00;;
43297;SDS011;28892;55.640;37.532;2022-12-07T16:56:12;14.90;;;7.37;;
43297;SDS011;28892;55.640;37.532;2022-12-07T16:58:40;13.97;;;7.30;;
43297;SDS011;28892;55.640;37.532;2022-12-07T17:01:25;11.90;;;6.87;;
43297;SDS011;28892;55.640;37.532;2022-12-07T17:03:53;9.10;;;5.33;;
43297;SDS011;28892;55.640;37.532;2022-12-07T17:06:20;9.73;;;6.80;;
43297;SDS011;28892;55.640;37.532;2022-12-07T17:08:49;15.13;;;8.13;;
43297;SDS011;28892;55.640;37.532;2022-12-07T17:11:23;13.00;;;7.83;;
43297;SDS011;28892;55.640;37.532;2022-12-07T17:13:54;16.03;;;7.17;;
43297;SDS011;28892;55.640;37.532;2022-12-07T17:16:38;11.63;;;7.50;;
43297;SDS011;28892;55.640;37.532;2022-12-07T17:19:05;9.63;;;5.43;;
43297;SDS011;28892;55.640;37.532;2022-12-07T17:21:35;13.30;;;7.47;;
43297;SDS011;28892;55.640;37.532;2022-12-07T17:24:01;13.00;;;9.17;;
43297;SDS011;28892;55.640;37.532;2022-12-07T17:26:33;10.90;;;6.13;;
43297;SDS011;28892;55.640;37.532;2022-12-07T17:29:05;11.80;;;8.13;;
43297;SDS011;28892;55.640;37.532;2022-12-07T17:31:42;10.43;;;6.87;;
43297;SDS011;28892;55.640;37.532;2022-12-07T17:34:12;11.20;;;7.00;;
43297;SDS011;28892;55.640;37.532;2022-12-07T17:36:39;11.87;;;6.43;;
43297;SDS011;28892;55.640;37.532;2022-12-07T17:39:11;11.37;;;6.97;;
43297;SDS011;28892;55.640;37.532;2022-12-07T17:41:39;9.90;;;5.90;;
43297;SDS011;28892;55.640;37.532;2022-12-07T17:45:17;18.37;;;6.63;;
43297;SDS011;28892;55.640;37.532;2022-12-07T17:47:58;9.17;;;6.83;;
43297;SDS011;28892;55.640;37.532;2022-12-07T17:50:25;7.80;;;5.57;;
43297;SDS011;28892;55.640;37.532;2022-12-07T17:53:10;12.10;;;7.37;;
43297;SDS011;28892;55.640;37.532;2022-12-07T17:55:36;14.00;;;6.53;;
43297;SDS011;28892;55.640;37.532;2022-12-07T17:58:03;10.50;;;6.77;;
43297;SDS011;28892;55.640;37.532;2022-12-07T18:00:28;12.03;;;6.70;;
43297;SDS011;28892;55.640;37.532;2022-12-07T18:02:54;13.20;;;8.47;;
43297;SDS011;28892;55.640;37.532;2022-12-07T18:05:20;12.77;;;7.70;;